createdAt,value
2022-10-06T00:02:26.799Z,9.70
2022-10-06T00:04:54.163Z,9.57
2022-10-06T00:07:21.391Z,9.65
2022-10-06T00:09:48.733Z,9.63
2022-10-06T00:12:16.139Z,9.62
2022-10-06T00:14:43.479Z,9.52
2022-10-06T00:17:10.809Z,9.46
2022-10-06T00:19:38.184Z,9.28
2022-10-06T00:22:05.409Z,9.40
2022-10-06T00:24:32.701Z,9.35
2022-10-06T00:27:00.066Z,9.39
2022-10-06T00:29:27.312Z,9.38
2022-10-06T00:31:54.603Z,9.37
2022-10-06T00:34:22.081Z,9.46
2022-10-06T00:36:50.570Z,9.37
2022-10-06T00:39:17.867Z,9.41
2022-10-06T00:41:45.101Z,9.38
2022-10-06T00:44:12.358Z,9.31
2022-10-06T00:46:45.655Z,9.47
2022-10-06T00:49:15.695Z,9.60
2022-10-06T00:51:48.244Z,9.40
2022-10-06T00:54:16.755Z,9.43
2022-10-06T00:56:44.811Z,9.44
2022-10-06T00:59:14.448Z,9.41
2022-10-06T01:01:47.726Z,9.37
2022-10-06T01:04:16.485Z,9.19
2022-10-06T01:06:52.303Z,9.23
2022-10-06T01:09:21.118Z,9.15
2022-10-06T01:11:52.143Z,9.07
2022-10-06T01:14:21.307Z,9.06
2022-10-06T01:17:09.369Z,9.02
2022-10-06T01:19:45.759Z,9.00
2022-10-06T01:22:16.843Z,8.94
2022-10-06T01:24:47.095Z,8.96
2022-10-06T01:27:16.443Z,9.19
2022-10-06T01:29:44.150Z,9.24
2022-10-06T01:32:12.018Z,8.97
2022-10-06T01:34:39.283Z,9.00
2022-10-06T01:37:06.602Z,8.98
2022-10-06T01:39:33.907Z,8.81
2022-10-06T01:42:01.549Z,9.00
2022-10-06T01:44:28.877Z,8.96
2022-10-06T01:46:56.136Z,9.09
2022-10-06T01:49:23.739Z,9.09
2022-10-06T01:51:51.347Z,9.05
2022-10-06T01:54:18.611Z,9.00
2022-10-06T01:56:45.954Z,8.87
2022-10-06T01:59:13.309Z,8.98
2022-10-06T02:01:40.653Z,8.97
2022-10-06T02:04:08.071Z,9.11
2022-10-06T02:06:35.423Z,9.21
2022-10-06T02:09:02.784Z,9.02
2022-10-06T02:11:30.124Z,8.99
2022-10-06T02:13:57.371Z,9.02
2022-10-06T02:16:24.774Z,8.87
2022-10-06T02:18:53.137Z,8.73
2022-10-06T02:21:22.482Z,8.74
2022-10-06T02:23:49.830Z,8.70
2022-10-06T02:26:18.202Z,8.77
2022-10-06T02:28:46.621Z,8.73
2022-10-06T02:31:14.611Z,8.80
2022-10-06T02:33:42.645Z,8.55
2022-10-06T02:36:12.470Z,8.61
2022-10-06T02:38:40.069Z,8.67
2022-10-06T02:41:08.206Z,8.55
2022-10-06T02:43:35.837Z,8.44
2022-10-06T02:46:10.301Z,8.46
2022-10-06T02:48:38.007Z,8.36
2022-10-06T02:51:08.143Z,8.41
2022-10-06T02:53:36.387Z,8.36
2022-10-06T02:56:09.559Z,8.41
2022-10-06T02:58:38.322Z,8.39
2022-10-06T03:01:08.122Z,8.32
2022-10-06T03:03:36.435Z,8.37
2022-10-06T03:06:11.339Z,8.46
2022-10-06T03:08:38.626Z,8.52
2022-10-06T03:11:05.937Z,8.47
2022-10-06T03:13:33.260Z,8.34
2022-10-06T03:16:00.654Z,8.49
2022-10-06T03:18:28.618Z,8.48
2022-10-06T03:21:00.466Z,8.47
2022-10-06T03:23:28.654Z,8.43
2022-10-06T03:25:57.635Z,8.43
2022-10-06T03:28:25.004Z,12.51
2022-10-06T03:30:52.477Z,13.32
2022-10-06T03:33:23.637Z,14.49
2022-10-06T03:35:59.041Z,13.83
2022-10-06T03:38:26.723Z,11.15
2022-10-06T03:41:02.347Z,10.92
2022-10-06T03:43:30.366Z,12.56
2022-10-06T03:45:59.137Z,13.92
2022-10-06T03:48:34.998Z,13.96
2022-10-06T03:51:10.344Z,14.03
2022-10-06T03:53:38.713Z,10.54
2022-10-06T03:56:08.106Z,9.58
2022-10-06T03:58:37.934Z,8.91
2022-10-06T04:01:10.924Z,8.65
2022-10-06T04:03:39.871Z,8.45
2022-10-06T04:06:11.974Z,8.46
2022-10-06T04:08:41.582Z,8.34
2022-10-06T04:11:12.527Z,8.24
2022-10-06T04:13:41.948Z,8.40
2022-10-06T04:16:21.323Z,8.48
2022-10-06T04:18:50.698Z,8.53
2022-10-06T04:21:18.528Z,8.51
2022-10-06T04:23:46.115Z,8.45
2022-10-06T04:26:19.461Z,8.39
2022-10-06T04:28:51.005Z,8.29
2022-10-06T04:31:19.318Z,8.12
2022-10-06T04:33:49.984Z,8.17
2022-10-06T04:36:20.280Z,8.30
2022-10-06T04:38:47.649Z,8.13
2022-10-06T04:41:24.253Z,8.11
2022-10-06T04:43:52.164Z,8.23
2022-10-06T04:46:42.112Z,8.17
2022-10-06T04:49:09.028Z,8.10
2022-10-06T04:51:39.398Z,8.11
2022-10-06T04:54:06.723Z,8.07
2022-10-06T04:56:34.078Z,8.18
2022-10-06T04:59:01.451Z,7.95
2022-10-06T05:01:31.264Z,7.99
2022-10-06T05:04:00.718Z,8.01
2022-10-06T05:06:33.833Z,8.09
2022-10-06T05:09:04.299Z,8.01
2022-10-06T05:11:31.775Z,8.04
2022-10-06T05:13:59.688Z,7.92
2022-10-06T05:16:28.968Z,8.01
2022-10-06T05:18:56.984Z,8.19
2022-10-06T05:21:28.004Z,8.04
2022-10-06T05:23:55.938Z,8.47
2022-10-06T05:26:26.975Z,8.34
2022-10-06T05:28:54.839Z,8.34
2022-10-06T05:31:36.496Z,8.34
2022-10-06T05:34:04.314Z,8.34
2022-10-06T05:36:33.858Z,8.52
2022-10-06T05:39:02.403Z,8.56
2022-10-06T05:41:32.808Z,8.71
2022-10-06T05:44:04.138Z,8.60
2022-10-06T05:46:33.358Z,8.76
2022-10-06T05:49:06.522Z,8.95
2022-10-06T05:51:35.662Z,9.07
2022-10-06T05:54:03.331Z,9.04
2022-10-06T05:56:32.851Z,9.07
2022-10-06T05:59:00.830Z,9.13
2022-10-06T06:01:34.258Z,9.29
2022-10-06T06:04:10.252Z,9.53
2022-10-06T06:06:47.737Z,9.56
2022-10-06T06:09:20.823Z,9.57
2022-10-06T06:11:50.288Z,9.56
2022-10-06T06:14:20.035Z,9.61
2022-10-06T06:16:47.419Z,9.74
2022-10-06T06:19:15.006Z,9.85
2022-10-06T06:21:42.358Z,10.10
2022-10-06T06:24:09.828Z,10.21
2022-10-06T06:26:37.599Z,10.42
2022-10-06T06:29:05.867Z,10.89
2022-10-06T06:31:38.728Z,11.02
2022-10-06T06:34:07.081Z,11.05
2022-10-06T06:36:37.041Z,11.06
2022-10-06T06:39:07.005Z,11.06
2022-10-06T06:41:36.804Z,10.94
2022-10-06T06:44:08.854Z,11.08
2022-10-06T06:49:04.857Z,11.57
2022-10-06T06:51:37.688Z,11.64
2022-10-06T06:54:05.278Z,11.60
2022-10-06T06:56:34.024Z,11.53
2022-10-06T06:59:09.448Z,11.50
2022-10-06T07:01:38.086Z,11.55
2022-10-06T07:04:05.703Z,11.98
2022-10-06T07:06:36.786Z,12.12
2022-10-06T07:09:04.293Z,11.94
2022-10-06T07:11:34.238Z,11.93
2022-10-06T07:14:10.197Z,11.97
2022-10-06T07:16:37.555Z,12.06
2022-10-06T07:19:05.741Z,12.24
2022-10-06T07:21:33.068Z,12.12
2022-10-06T07:24:00.518Z,12.13
2022-10-06T07:26:28.051Z,12.14
2022-10-06T07:28:55.292Z,12.36
2022-10-06T07:31:22.583Z,12.34
2022-10-06T07:33:51.001Z,12.53
2022-10-06T07:36:18.673Z,12.55
2022-10-06T07:38:46.433Z,12.57
2022-10-06T07:41:19.219Z,12.63
2022-10-06T07:43:47.341Z,12.73
2022-10-06T07:46:15.206Z,12.83
2022-10-06T07:48:42.911Z,13.02
2022-10-06T07:51:15.523Z,13.06
2022-10-06T07:53:43.399Z,13.16
2022-10-06T07:56:10.734Z,13.28
2022-10-06T07:58:38.210Z,13.37
2022-10-06T08:01:11.465Z,13.47
2022-10-06T08:03:41.710Z,13.55
2022-10-06T08:06:09.711Z,13.59
2022-10-06T08:08:36.985Z,13.76
2022-10-06T08:11:06.766Z,13.88
2022-10-06T08:13:39.919Z,13.98
2022-10-06T08:16:28.986Z,14.21
2022-10-06T08:18:58.591Z,14.32
2022-10-06T08:21:32.034Z,14.46
2022-10-06T08:24:00.401Z,14.58
2022-10-06T08:26:29.039Z,14.59
2022-10-06T08:28:57.273Z,14.61
2022-10-06T08:31:24.694Z,14.77
2022-10-06T08:33:57.108Z,14.84
2022-10-06T08:36:31.317Z,15.06
2022-10-06T08:39:00.316Z,15.25
2022-10-06T08:41:41.018Z,15.38
2022-10-06T08:44:14.185Z,15.54
2022-10-06T08:46:52.496Z,15.72
2022-10-06T08:49:23.224Z,15.80
2022-10-06T08:52:28.321Z,16.00
2022-10-06T08:55:13.983Z,16.22
2022-10-06T08:58:00.696Z,16.39
2022-10-06T09:00:29.349Z,16.46
2022-10-06T09:02:56.761Z,16.84
2022-10-06T09:05:24.111Z,16.93
2022-10-06T09:07:57.254Z,17.20
2022-10-06T09:10:24.523Z,17.26
2022-10-06T09:12:56.384Z,17.52
2022-10-06T09:15:50.186Z,17.63
2022-10-06T09:18:56.184Z,17.61
2022-10-06T09:21:27.768Z,17.81
2022-10-06T09:24:01.122Z,17.94
2022-10-06T09:26:30.850Z,18.57
2022-10-06T09:28:58.460Z,19.09
2022-10-06T09:31:31.698Z,19.32
2022-10-06T09:34:04.232Z,19.60
2022-10-06T09:36:31.982Z,19.61
2022-10-06T09:39:00.240Z,19.52
2022-10-06T09:41:38.924Z,19.28
2022-10-06T09:44:27.701Z,18.92
2022-10-06T09:46:55.623Z,18.75
2022-10-06T09:49:25.647Z,18.52
2022-10-06T09:52:15.748Z,18.62
2022-10-06T09:54:44.035Z,18.50
2022-10-06T09:57:18.020Z,18.58
2022-10-06T09:59:47.415Z,18.51
2022-10-06T10:02:34.809Z,18.51
2022-10-06T10:05:04.605Z,18.65
2022-10-06T10:07:32.114Z,18.69
2022-10-06T10:10:24.605Z,18.67
2022-10-06T10:12:57.316Z,18.62
2022-10-06T10:15:36.179Z,18.74
2022-10-06T10:18:13.763Z,18.56
2022-10-06T10:20:52.398Z,18.63
2022-10-06T10:23:35.566Z,18.73
2022-10-06T10:26:05.827Z,18.90
2022-10-06T10:28:45.472Z,18.82
2022-10-06T10:31:33.561Z,18.75
2022-10-06T10:34:23.493Z,18.93
2022-10-06T10:37:01.104Z,19.02
2022-10-06T10:39:37.597Z,19.03
2022-10-06T10:42:15.496Z,19.04
2022-10-06T10:45:07.387Z,19.11
2022-10-06T10:47:38.077Z,19.22
2022-10-06T10:50:19.773Z,19.13
2022-10-06T10:52:50.625Z,19.01
2022-10-06T10:55:34.292Z,19.20
2022-10-06T10:58:18.717Z,19.25
2022-10-06T11:00:51.816Z,19.19
2022-10-06T11:03:19.158Z,19.47
2022-10-06T11:06:01.318Z,19.49
2022-10-06T11:08:37.044Z,19.55
2022-10-06T11:11:14.131Z,19.64
2022-10-06T11:13:41.301Z,19.62
2022-10-06T11:16:14.781Z,19.73
2022-10-06T11:19:02.631Z,19.78
2022-10-06T11:22:00.687Z,19.83
2022-10-06T11:24:53.276Z,19.93
2022-10-06T11:27:47.178Z,20.04
2022-10-06T11:30:17.631Z,19.86
2022-10-06T11:33:27.442Z,19.97
2022-10-06T11:35:55.379Z,20.23
2022-10-06T11:38:45.717Z,19.89
2022-10-06T11:41:16.024Z,19.65
2022-10-06T11:44:06.604Z,19.99
2022-10-06T11:47:04.065Z,19.98
2022-10-06T11:49:31.303Z,19.82
2022-10-06T11:52:08.610Z,19.75
2022-10-06T11:54:39.178Z,19.80
2022-10-06T11:57:30.871Z,19.90
2022-10-06T12:00:04.760Z,19.80
2022-10-06T12:02:36.866Z,19.63
2022-10-06T12:05:28.494Z,19.50
2022-10-06T12:07:57.447Z,19.48
2022-10-06T12:10:28.747Z,19.66
2022-10-06T12:14:01.225Z,19.58
2022-10-06T12:19:28.006Z,19.47
2022-10-06T12:22:26.510Z,19.48
2022-10-06T12:25:04.564Z,19.38
2022-10-06T12:28:02.792Z,19.25
2022-10-06T12:31:03.884Z,19.24
2022-10-06T12:33:37.373Z,19.29
2022-10-06T12:36:16.892Z,19.53
2022-10-06T12:39:00.291Z,19.51
2022-10-06T12:41:56.933Z,19.47
2022-10-06T12:44:45.835Z,19.35
2022-10-06T12:47:27.273Z,19.31
2022-10-06T12:49:59.497Z,19.24
2022-10-06T12:52:47.895Z,19.25
2022-10-06T12:55:38.630Z,19.21
2022-10-06T12:58:14.042Z,19.19
2022-10-06T13:00:42.275Z,19.16
2022-10-06T13:03:24.000Z,19.17
2022-10-06T13:06:02.668Z,19.15
2022-10-06T13:08:33.089Z,19.24
2022-10-06T13:11:19.912Z,19.27
2022-10-06T13:14:13.157Z,19.25
2022-10-06T13:16:46.977Z,19.16
2022-10-06T13:19:22.288Z,19.60
2022-10-06T13:21:49.840Z,19.72
2022-10-06T13:24:21.630Z,19.59
2022-10-06T13:26:49.050Z,19.62
2022-10-06T13:29:25.919Z,19.54
2022-10-06T13:31:55.695Z,19.64
2022-10-06T13:34:33.582Z,19.86
2022-10-06T13:37:01.425Z,19.79
2022-10-06T13:39:29.840Z,19.66
2022-10-06T13:42:15.411Z,19.75
2022-10-06T13:44:54.065Z,19.69
2022-10-06T13:47:27.451Z,19.72
2022-10-06T13:50:03.393Z,19.74
2022-10-06T13:52:46.282Z,19.79
2022-10-06T13:55:33.782Z,19.79
2022-10-06T13:58:04.865Z,19.84
2022-10-06T14:00:56.931Z,19.72
2022-10-06T14:03:29.759Z,19.71
2022-10-06T14:06:12.022Z,19.77
2022-10-06T14:08:39.585Z,19.79
2022-10-06T14:11:08.793Z,19.66
2022-10-06T14:13:42.508Z,19.62
2022-10-06T14:16:19.664Z,19.70
2022-10-06T14:19:04.499Z,19.69
2022-10-06T14:21:39.248Z,19.57
2022-10-06T14:24:15.711Z,19.54
2022-10-06T14:26:44.929Z,19.52
2022-10-06T14:29:16.004Z,19.60
2022-10-06T14:31:43.640Z,19.59
2022-10-06T14:34:13.065Z,19.58
2022-10-06T14:36:41.545Z,19.72
2022-10-06T14:39:12.734Z,19.47
2022-10-06T14:41:40.244Z,19.36
2022-10-06T14:44:09.582Z,19.31
2022-10-06T14:46:38.597Z,19.39
2022-10-06T14:49:10.773Z,19.39
2022-10-06T14:51:39.400Z,19.44
2022-10-06T14:54:07.652Z,19.60
2022-10-06T14:56:36.709Z,19.54
2022-10-06T14:59:06.303Z,19.40
2022-10-06T15:01:36.679Z,19.51
2022-10-06T15:04:11.657Z,19.29
2022-10-06T15:06:40.375Z,19.42
2022-10-06T15:09:08.907Z,19.27
2022-10-06T15:11:36.227Z,19.14
2022-10-06T15:14:04.752Z,19.14
2022-10-06T15:16:35.583Z,19.46
2022-10-06T15:19:03.799Z,19.37
2022-10-06T15:21:32.722Z,19.06
2022-10-06T15:24:02.812Z,19.06
2022-10-06T15:26:31.458Z,19.22
2022-10-06T15:28:58.768Z,19.18
2022-10-06T15:31:37.001Z,19.17
2022-10-06T15:34:06.869Z,19.19
2022-10-06T15:36:39.980Z,18.98
2022-10-06T15:39:13.093Z,18.70
2022-10-06T15:41:41.878Z,18.70
2022-10-06T15:44:10.332Z,18.73
2022-10-06T15:46:40.085Z,18.76
2022-10-06T15:49:14.745Z,18.65
2022-10-06T15:51:51.019Z,18.61
2022-10-06T15:54:21.137Z,18.63
2022-10-06T15:56:50.569Z,18.72
2022-10-06T15:59:18.935Z,18.92
2022-10-06T16:01:46.805Z,19.03
2022-10-06T16:04:17.689Z,18.95
2022-10-06T16:06:44.984Z,18.93
2022-10-06T16:09:12.801Z,18.84
2022-10-06T16:11:40.804Z,18.82
2022-10-06T16:14:09.400Z,18.60
2022-10-06T16:16:41.167Z,18.72
2022-10-06T16:19:11.100Z,18.90
2022-10-06T16:21:39.361Z,18.58
2022-10-06T16:24:06.910Z,18.78
2022-10-06T16:26:34.390Z,18.61
2022-10-06T16:29:01.862Z,18.75
2022-10-06T16:31:29.558Z,18.91
2022-10-06T16:33:57.114Z,18.75
2022-10-06T16:36:24.344Z,18.62
2022-10-06T16:38:53.719Z,18.66
2022-10-06T16:41:22.384Z,18.79
2022-10-06T16:43:51.599Z,18.77
2022-10-06T16:46:25.190Z,18.70
2022-10-06T16:48:54.769Z,18.70
2022-10-06T16:51:26.536Z,17.82
2022-10-06T16:54:01.964Z,16.58
2022-10-06T16:56:31.793Z,16.07
2022-10-06T16:59:01.212Z,15.84
2022-10-06T17:01:32.424Z,15.67
2022-10-06T17:04:01.189Z,15.53
2022-10-06T17:06:29.840Z,15.54
2022-10-06T17:08:57.924Z,15.55
2022-10-06T17:11:25.600Z,15.40
2022-10-06T17:13:55.652Z,15.24
2022-10-06T17:16:26.257Z,15.22
2022-10-06T17:18:55.693Z,15.12
2022-10-06T17:21:44.183Z,15.08
2022-10-06T17:24:11.069Z,15.20
2022-10-06T17:26:41.282Z,15.10
2022-10-06T17:29:13.866Z,15.05
2022-10-06T17:31:43.165Z,15.06
2022-10-06T17:34:15.061Z,15.13
2022-10-06T17:36:47.707Z,15.13
2022-10-06T17:39:17.417Z,14.88
2022-10-06T17:41:45.744Z,15.03
2022-10-06T17:44:15.718Z,15.06
2022-10-06T17:46:44.328Z,15.05
2022-10-06T17:49:14.192Z,15.14
2022-10-06T17:51:44.257Z,15.06
2022-10-06T17:54:13.207Z,15.00
2022-10-06T17:56:40.447Z,14.85
2022-10-06T17:59:12.118Z,14.93
2022-10-06T18:01:40.281Z,14.79
2022-10-06T18:04:08.361Z,14.84
2022-10-06T18:06:35.836Z,14.85
2022-10-06T18:09:04.228Z,14.78
2022-10-06T18:11:32.385Z,14.82
2022-10-06T18:14:04.111Z,14.84
2022-10-06T18:16:34.780Z,14.83
2022-10-06T18:19:05.456Z,14.67
2022-10-06T18:21:34.055Z,14.61
2022-10-06T18:24:01.690Z,14.74
2022-10-06T18:26:29.057Z,14.49
2022-10-06T18:28:56.681Z,14.57
2022-10-06T18:31:24.596Z,14.56
2022-10-06T18:36:40.046Z,14.46
2022-10-06T18:39:11.563Z,14.22
2022-10-06T18:41:40.139Z,14.25
2022-10-06T18:44:08.847Z,14.13
2022-10-06T18:46:36.244Z,14.33
2022-10-06T18:49:15.164Z,14.43
2022-10-06T18:51:55.876Z,14.24
2022-10-06T18:54:28.515Z,14.22
2022-10-06T18:56:56.788Z,14.08
2022-10-06T18:59:27.926Z,13.90
2022-10-06T19:01:55.603Z,13.87
2022-10-06T19:04:23.996Z,13.95
2022-10-06T19:06:53.761Z,13.95
2022-10-06T19:09:23.190Z,13.88
2022-10-06T19:11:52.949Z,13.77
2022-10-06T19:14:28.304Z,13.83
2022-10-06T19:17:10.465Z,13.81
2022-10-06T19:19:37.817Z,13.91
2022-10-06T19:22:05.805Z,13.89
2022-10-06T19:24:36.530Z,13.83
2022-10-06T19:27:06.584Z,13.79
2022-10-06T19:29:36.817Z,13.64
2022-10-06T19:32:05.877Z,13.65
2022-10-06T19:34:34.733Z,13.59
2022-10-06T19:37:01.987Z,13.76
2022-10-06T19:39:33.705Z,13.56
2022-10-06T19:42:01.814Z,13.63
2022-10-06T19:44:30.183Z,13.68
2022-10-06T19:46:57.743Z,13.60
2022-10-06T19:49:25.150Z,13.45
2022-10-06T19:51:52.436Z,13.45
2022-10-06T19:54:19.757Z,13.46
2022-10-06T19:56:47.568Z,13.55
2022-10-06T19:59:17.992Z,13.31
2022-10-06T20:01:45.911Z,13.31
2022-10-06T20:04:13.545Z,13.46
2022-10-06T20:06:41.786Z,13.38
2022-10-06T20:09:11.557Z,13.25
2022-10-06T20:11:41.015Z,13.22
2022-10-06T20:14:13.971Z,13.09
2022-10-06T20:16:47.019Z,13.12
2022-10-06T20:19:14.290Z,13.14
2022-10-06T20:21:41.871Z,13.01
2022-10-06T20:24:15.179Z,12.96
2022-10-06T20:26:42.817Z,12.92
2022-10-06T20:29:12.995Z,12.82
2022-10-06T20:31:42.890Z,12.87
2022-10-06T20:34:12.726Z,12.87
2022-10-06T20:36:40.769Z,12.94
2022-10-06T20:39:12.009Z,12.95
2022-10-06T20:41:40.013Z,12.97
2022-10-06T20:44:08.215Z,12.96
2022-10-06T20:46:38.013Z,12.98
2022-10-06T20:49:10.862Z,12.87
2022-10-06T20:51:39.439Z,12.87
2022-10-06T20:54:07.541Z,12.82
2022-10-06T20:56:35.365Z,12.85
2022-10-06T20:59:06.150Z,12.81
2022-10-06T21:01:38.298Z,12.80
2022-10-06T21:04:05.750Z,12.80
2022-10-06T21:06:32.981Z,12.76
2022-10-06T21:09:00.456Z,12.72
2022-10-06T21:11:35.343Z,12.68
2022-10-06T21:14:15.657Z,12.67
2022-10-06T21:16:45.541Z,12.73
2022-10-06T21:19:15.564Z,12.72
2022-10-06T21:21:44.196Z,12.60
2022-10-06T21:24:12.903Z,12.48
2022-10-06T21:26:40.227Z,12.41
2022-10-06T21:29:07.774Z,12.32
2022-10-06T21:31:35.197Z,12.20
2022-10-06T21:34:02.594Z,12.19
2022-10-06T21:36:29.999Z,12.20
2022-10-06T21:38:59.136Z,12.18
2022-10-06T21:41:29.518Z,12.36
2022-10-06T21:44:11.291Z,12.31
2022-10-06T21:46:43.077Z,12.16
2022-10-06T21:49:12.105Z,11.97
2022-10-06T21:51:41.201Z,11.96
2022-10-06T21:54:08.643Z,11.93
2022-10-06T21:56:36.178Z,11.89
2022-10-06T21:59:04.009Z,11.86
2022-10-06T22:01:34.043Z,11.77
2022-10-06T22:04:02.207Z,11.65
2022-10-06T22:06:31.324Z,11.64
2022-10-06T22:08:59.399Z,11.65
2022-10-06T22:11:28.994Z,11.49
2022-10-06T22:13:59.538Z,11.54
2022-10-06T22:16:29.441Z,11.50
2022-10-06T22:18:56.728Z,11.39
2022-10-06T22:21:31.836Z,11.45
2022-10-06T22:24:05.339Z,11.45
2022-10-06T22:26:34.290Z,11.38
2022-10-06T22:29:01.546Z,11.43
2022-10-06T22:31:28.994Z,11.54
2022-10-06T22:34:01.364Z,11.37
2022-10-06T22:36:28.838Z,11.33
2022-10-06T22:38:56.901Z,11.35
2022-10-06T22:41:24.531Z,11.39
2022-10-06T22:43:56.840Z,11.48
2022-10-06T22:46:25.622Z,11.35
2022-10-06T22:48:53.180Z,11.32
2022-10-06T22:51:20.728Z,11.28
2022-10-06T22:53:56.555Z,11.27
2022-10-06T22:56:26.366Z,11.20
2022-10-06T22:58:53.865Z,11.14
2022-10-06T23:01:21.338Z,11.05
2022-10-06T23:03:49.068Z,11.13
2022-10-06T23:06:17.886Z,11.18
2022-10-06T23:08:45.311Z,11.23
2022-10-06T23:11:16.045Z,10.99
2022-10-06T23:13:44.286Z,11.15
2022-10-06T23:16:14.131Z,11.36
2022-10-06T23:18:42.959Z,11.18
2022-10-06T23:21:19.517Z,11.21
2022-10-06T23:24:00.351Z,10.95
2022-10-06T23:26:28.507Z,11.12
2022-10-06T23:29:00.186Z,10.97
2022-10-06T23:31:29.067Z,10.95
2022-10-06T23:33:57.026Z,10.97
2022-10-06T23:36:24.539Z,10.94
2022-10-06T23:38:52.157Z,10.95
2022-10-06T23:41:20.249Z,10.86
2022-10-06T23:43:48.114Z,10.79
2022-10-06T23:46:15.554Z,10.86
2022-10-06T23:48:43.022Z,10.82
2022-10-06T23:51:12.852Z,10.76
2022-10-06T23:53:40.143Z,10.63
2022-10-06T23:56:07.434Z,10.68
2022-10-06T23:58:34.894Z,10.69
